Time;durP1;ratioP1;P1;durP2;ratioP2;P2;SDS_P1;SDS_P2;PMS_P1;PMS_P2;Temp;Humidity;BMP_temperature;BMP_pressure;BME280_temperature;BME280_humidity;BME280_pressure;Samples;Min_cycle;Max_cycle;Signal;HPM_P1;HPM_P2
2024/01/14 00:00:16;;;;;;;15.88;4.38;;;3.50;99.90;;;;;;5075604;28;20420;-63
2024/01/14 00:02:42;;;;;;;15.35;4.38;;;3.50;99.90;;;;;;5075368;28;20433;-63
2024/01/14 00:05:08;;;;;;;16.77;4.40;;;3.50;99.90;;;;;;5054074;28;20425;-63
2024/01/14 00:07:36;;;;;;;14.67;4.27;;;3.60;99.90;;;;;;5057401;28;20928;-63
2024/01/14 00:10:03;;;;;;;14.10;4.22;;;3.50;99.90;;;;;;5071125;28;20575;-63
2024/01/14 00:12:29;;;;;;;18.58;4.65;;;3.50;99.90;;;;;;5082316;28;20401;-63
2024/01/14 00:14:55;;;;;;;17.75;4.10;;;3.60;99.90;;;;;;5068526;28;20409;-63
2024/01/14 00:17:21;;;;;;;14.97;3.77;;;3.60;99.90;;;;;;5054343;28;21292;-63
2024/01/14 00:19:47;;;;;;;15.95;4.20;;;3.50;99.90;;;;;;5076995;28;20441;-63
2024/01/14 00:22:13;;;;;;;12.93;4.10;;;3.50;99.90;;;;;;5072720;28;20456;-63
2024/01/14 00:24:38;;;;;;;14.50;4.20;;;3.60;99.90;;;;;;5066532;28;20422;-63
2024/01/14 00:27:04;;;;;;;12.20;3.72;;;3.60;99.90;;;;;;5078541;28;20420;-63
2024/01/14 00:29:30;;;;;;;16.92;4.07;;;3.50;99.90;;;;;;5039600;28;20431;-63
2024/01/14 00:31:57;;;;;;;15.27;4.50;;;3.50;99.90;;;;;;5054262;28;20441;-63
2024/01/14 00:34:23;;;;;;;16.42;3.80;;;3.50;99.90;;;;;;5072785;28;20773;-63
2024/01/14 00:36:49;;;;;;;15.38;4.40;;;3.50;99.90;;;;;;5074478;28;20414;-63
2024/01/14 00:39:14;;;;;;;13.32;4.38;;;3.50;99.90;;;;;;5051843;28;20400;-63
2024/01/14 00:41:40;;;;;;;14.47;3.83;;;3.50;99.90;;;;;;5069182;28;20400;-63
2024/01/14 00:44:06;;;;;;;13.77;3.80;;;3.40;99.90;;;;;;5072596;28;20414;-63
2024/01/14 00:46:32;;;;;;;14.07;4.07;;;3.40;99.90;;;;;;5050423;28;20450;-63
2024/01/14 00:48:58;;;;;;;15.50;4.20;;;3.40;99.90;;;;;;5073451;28;20396;-63
2024/01/14 00:51:23;;;;;;;17.23;4.05;;;3.40;99.90;;;;;;5097319;28;20415;-63
2024/01/14 00:53:49;;;;;;;12.97;3.87;;;3.40;99.90;;;;;;5072273;28;20413;-63
2024/01/14 00:56:15;;;;;;;14.15;4.20;;;3.50;99.90;;;;;;5071818;28;20736;-63
2024/01/14 00:58:40;;;;;;;15.85;4.25;;;3.50;99.90;;;;;;5073938;28;20420;-63
2024/01/14 01:01:06;;;;;;;17.83;4.37;;;3.60;99.90;;;;;;5070775;28;20967;-63
2024/01/14 01:03:32;;;;;;;15.47;3.67;;;3.60;99.90;;;;;;5073363;28;20425;-63
2024/01/14 01:05:58;;;;;;;11.38;3.42;;;3.60;99.90;;;;;;5074256;28;20924;-63
2024/01/14 01:08:23;;;;;;;16.52;3.88;;;3.60;99.90;;;;;;5073093;28;20406;-63
2024/01/14 01:10:49;;;;;;;15.33;3.93;;;3.60;99.90;;;;;;5079009;28;20447;-63
2024/01/14 01:13:15;;;;;;;12.30;3.77;;;3.60;99.90;;;;;;5071950;28;20399;-63
2024/01/14 01:15:41;;;;;;;16.27;4.38;;;3.60;99.90;;;;;;5088776;28;20511;-63
2024/01/14 01:18:07;;;;;;;14.27;3.90;;;3.50;99.90;;;;;;5071946;28;20922;-63
2024/01/14 01:20:32;;;;;;;11.80;3.80;;;3.60;99.90;;;;;;5072509;28;20640;-63
2024/01/14 01:22:58;;;;;;;13.97;3.97;;;3.60;99.90;;;;;;5061872;28;20431;-63
2024/01/14 01:25:25;;;;;;;13.48;4.20;;;3.70;99.90;;;;;;5052797;28;20489;-63
2024/01/14 01:27:51;;;;;;;16.15;3.90;;;3.70;99.90;;;;;;5072666;28;20395;-63
2024/01/14 01:30:17;;;;;;;14.63;3.65;;;3.70;99.90;;;;;;5072621;28;20478;-63
2024/01/14 01:32:43;;;;;;;11.85;3.58;;;3.70;99.90;;;;;;5074433;28;20511;-63
2024/01/14 01:35:09;;;;;;;13.25;3.83;;;3.70;99.90;;;;;;5055250;28;20411;-63
2024/01/14 01:37:34;;;;;;;18.00;4.00;;;3.70;99.90;;;;;;5057163;28;20424;-63
2024/01/14 01:40:00;;;;;;;14.80;3.95;;;3.70;99.90;;;;;;5071238;28;20427;-63
2024/01/14 01:42:26;;;;;;;16.83;4.78;;;3.70;99.90;;;;;;5057202;28;20399;-63
2024/01/14 01:44:52;;;;;;;11.45;3.78;;;3.70;99.90;;;;;;5072042;28;20515;-63
2024/01/14 01:47:19;;;;;;;13.10;3.78;;;3.70;99.90;;;;;;5032480;28;20413;-63
2024/01/14 01:49:45;;;;;;;14.48;3.72;;;3.60;99.90;;;;;;5050734;28;20419;-63
2024/01/14 01:52:11;;;;;;;15.95;4.30;;;3.60;99.90;;;;;;5070394;28;20872;-64
2024/01/14 01:54:39;;;;;;;13.15;3.58;;;3.60;99.90;;;;;;5073540;28;20411;-64
2024/01/14 01:57:06;;;;;;;12.10;3.70;;;3.60;99.90;;;;;;5053084;28;20502;-64
2024/01/14 01:59:33;;;;;;;18.52;3.95;;;3.60;99.90;;;;;;5069597;28;20933;-64
2024/01/14 02:02:00;;;;;;;19.08;4.10;;;3.60;99.90;;;;;;5053975;28;20724;-64
2024/01/14 02:04:27;;;;;;;16.58;3.88;;;3.60;99.90;;;;;;5076035;28;20388;-64
2024/01/14 02:06:53;;;;;;;15.13;3.80;;;3.60;99.90;;;;;;5075754;28;20801;-64
2024/01/14 02:09:19;;;;;;;16.00;3.90;;;3.70;99.90;;;;;;5076489;28;20403;-64
2024/01/14 02:11:45;;;;;;;14.27;3.92;;;3.70;99.90;;;;;;5076126;28;20753;-64
2024/01/14 02:14:11;;;;;;;14.52;3.20;;;3.70;99.90;;;;;;5073317;28;20388;-64
2024/01/14 02:16:36;;;;;;;11.67;3.30;;;3.70;99.90;;;;;;5073928;28;20443;-64
2024/01/14 02:19:02;;;;;;;10.05;2.60;;;3.80;99.90;;;;;;5060372;28;20404;-63
2024/01/14 02:21:45;;;;;;;11.45;2.83;;;3.80;99.90;;;;;;5073970;28;20414;-63
2024/01/14 02:24:26;;;;;;;9.70;3.03;;;3.80;99.90;;;;;;5069807;28;20781;-64
2024/01/14 02:26:52;;;;;;;10.73;3.00;;;3.80;99.90;;;;;;5068652;28;20411;-63
2024/01/14 02:29:19;;;;;;;13.13;3.47;;;3.80;99.90;;;;;;5073124;28;20462;-63
2024/01/14 02:31:45;;;;;;;8.80;3.00;;;3.80;99.90;;;;;;5074297;28;20415;-63
2024/01/14 02:34:12;;;;;;;11.70;3.20;;;3.80;99.90;;;;;;5058126;28;20402;-64
2024/01/14 02:36:38;;;;;;;14.23;3.60;;;3.90;99.90;;;;;;5072437;28;20496;-63
2024/01/14 02:39:04;;;;;;;16.20;3.97;;;3.80;99.90;;;;;;5082371;28;20572;-64
2024/01/14 02:41:31;;;;;;;13.18;3.45;;;3.80;99.90;;;;;;5082114;28;20555;-63
2024/01/14 02:43:57;;;;;;;15.43;4.00;;;3.80;99.90;;;;;;5082894;28;20414;-65
2024/01/14 02:46:23;;;;;;;13.60;3.80;;;3.80;99.90;;;;;;5079814;28;20419;-64
2024/01/14 02:48:49;;;;;;;14.75;3.95;;;3.80;99.90;;;;;;5083651;28;20398;-64
2024/01/14 02:51:15;;;;;;;15.43;3.95;;;3.80;99.90;;;;;;5080729;28;20410;-64
2024/01/14 02:53:42;;;;;;;11.93;3.70;;;3.70;99.90;;;;;;5081997;28;20482;-63
2024/01/14 02:56:08;;;;;;;16.40;3.92;;;3.70;99.90;;;;;;5079712;28;20402;-63
2024/01/14 02:58:34;;;;;;;17.10;4.32;;;3.60;99.90;;;;;;5076880;28;20544;-63
2024/01/14 03:01:00;;;;;;;16.83;3.90;;;3.60;99.90;;;;;;5081462;28;20501;-63
2024/01/14 03:03:25;;;;;;;14.63;4.20;;;3.50;99.90;;;;;;5081233;28;20805;-64
2024/01/14 03:05:51;;;;;;;14.53;3.80;;;3.40;99.90;;;;;;5079413;28;20967;-63
2024/01/14 03:08:20;;;;;;;13.87;4.23;;;3.40;99.90;;;;;;5084113;28;20455;-63
2024/01/14 03:10:46;;;;;;;13.35;3.55;;;3.30;99.90;;;;;;5077010;28;20417;-64
2024/01/14 03:13:14;;;;;;;15.20;3.88;;;3.30;99.90;;;;;;5077202;28;20401;-63
2024/01/14 03:15:40;;;;;;;14.68;4.25;;;3.30;99.90;;;;;;5076327;28;20423;-63
2024/01/14 03:18:05;;;;;;;16.38;3.95;;;3.20;99.90;;;;;;5079640;28;20409;-64
2024/01/14 03:20:32;;;;;;;19.25;4.22;;;3.20;99.90;;;;;;5082742;28;20426;-64
2024/01/14 03:22:58;;;;;;;20.95;3.95;;;3.20;99.90;;;;;;5081038;28;20442;-64
2024/01/14 03:25:23;;;;;;;18.38;4.57;;;3.10;99.90;;;;;;5077084;28;20440;-63
2024/01/14 03:27:49;;;;;;;18.35;4.20;;;3.10;99.90;;;;;;5062621;28;20410;-63
2024/01/14 03:30:15;;;;;;;18.83;4.70;;;3.10;99.90;;;;;;5065107;28;20402;-64
2024/01/14 03:32:40;;;;;;;16.65;4.18;;;3.00;99.90;;;;;;5083367;28;20419;-63
2024/01/14 03:35:06;;;;;;;18.40;4.57;;;3.00;99.90;;;;;;5078584;28;20482;-63
2024/01/14 03:37:32;;;;;;;16.67;4.50;;;3.00;99.90;;;;;;5076908;28;20754;-63
2024/01/14 03:39:58;;;;;;;19.80;4.57;;;3.00;99.90;;;;;;5074900;28;20419;-63
2024/01/14 03:42:24;;;;;;;16.17;4.20;;;3.00;99.90;;;;;;5078790;28;20397;-63
2024/01/14 03:44:50;;;;;;;18.43;4.80;;;3.00;99.90;;;;;;5075287;28;20494;-63
2024/01/14 03:47:15;;;;;;;20.90;4.70;;;3.00;99.90;;;;;;5049534;28;20935;-63
2024/01/14 03:49:42;;;;;;;16.77;4.35;;;3.10;99.90;;;;;;5068879;28;20421;-63
2024/01/14 03:52:07;;;;;;;18.73;4.72;;;3.10;99.90;;;;;;5065093;28;20514;-63
2024/01/14 03:54:33;;;;;;;14.80;4.15;;;3.10;99.90;;;;;;5069011;28;20646;-64
2024/01/14 03:56:59;;;;;;;15.93;4.57;;;3.10;99.90;;;;;;5053032;28;20822;-63
2024/01/14 03:59:25;;;;;;;16.13;4.63;;;3.10;99.90;;;;;;5080649;28;20434;-64
2024/01/14 04:01:51;;;;;;;19.17;4.75;;;3.10;99.90;;;;;;5079372;28;20395;-63
2024/01/14 04:04:16;;;;;;;16.90;5.03;;;3.10;99.90;;;;;;5046048;28;20410;-63
2024/01/14 04:06:42;;;;;;;17.33;4.70;;;3.10;99.90;;;;;;5077180;28;20884;-63
2024/01/14 04:09:08;;;;;;;16.80;4.30;;;3.10;99.90;;;;;;5080564;28;20899;-63
2024/01/14 04:11:34;;;;;;;17.13;4.70;;;3.10;99.90;;;;;;5075334;28;20450;-64
2024/01/14 04:14:00;;;;;;;16.90;4.20;;;3.10;99.90;;;;;;5074983;28;20416;-63
2024/01/14 04:16:25;;;;;;;16.17;4.55;;;3.10;99.90;;;;;;5077988;28;20911;-63
2024/01/14 04:18:51;;;;;;;21.03;4.43;;;3.10;99.90;;;;;;5074955;28;20464;-63
2024/01/14 04:21:24;;;;;;;20.38;4.55;;;3.10;99.90;;;;;;5076786;28;20431;-63
2024/01/14 04:23:50;;;;;;;20.02;4.75;;;3.20;99.90;;;;;;5079964;28;20409;-64
2024/01/14 04:26:23;;;;;;;20.27;4.78;;;3.20;99.90;;;;;;5075523;28;20404;-63
2024/01/14 04:28:49;;;;;;;18.88;4.80;;;3.20;99.90;;;;;;5083982;28;20396;-64
2024/01/14 04:31:15;;;;;;;17.77;4.63;;;3.10;99.90;;;;;;5080638;28;21176;-63
2024/01/14 04:33:41;;;;;;;17.35;4.43;;;3.10;99.90;;;;;;5076217;28;20457;-63
2024/01/14 04:36:07;;;;;;;17.17;4.57;;;3.10;99.90;;;;;;5072938;28;20479;-63
2024/01/14 04:38:33;;;;;;;18.03;4.47;;;3.00;99.90;;;;;;5081629;28;20481;-63
2024/01/14 04:40:58;;;;;;;22.67;4.93;;;3.00;99.90;;;;;;5060241;28;20520;-64
2024/01/14 04:43:24;;;;;;;18.13;4.57;;;3.00;99.90;;;;;;5061351;28;20612;-63
2024/01/14 04:45:50;;;;;;;20.20;4.73;;;3.00;99.90;;;;;;5079650;28;20413;-63
2024/01/14 04:48:15;;;;;;;20.30;4.40;;;3.00;99.90;;;;;;5075998;28;20859;-63
2024/01/14 04:50:41;;;;;;;19.02;4.72;;;3.00;99.90;;;;;;5076409;28;20409;-64
2024/01/14 04:53:07;;;;;;;18.85;4.63;;;3.00;99.90;;;;;;5078526;28;20763;-63
2024/01/14 04:55:33;;;;;;;20.65;4.72;;;3.00;99.90;;;;;;5072853;28;20441;-63
2024/01/14 04:57:59;;;;;;;20.25;4.90;;;2.90;99.90;;;;;;5079641;28;20909;-63
2024/01/14 05:00:25;;;;;;;22.83;4.67;;;3.00;99.90;;;;;;5078390;28;20424;-63
2024/01/14 05:02:51;;;;;;;16.55;4.50;;;3.00;99.90;;;;;;5078799;28;20427;-63
2024/01/14 05:05:17;;;;;;;15.48;4.35;;;3.00;99.90;;;;;;5080971;28;20425;-64
2024/01/14 05:07:42;;;;;;;17.20;4.28;;;3.00;99.90;;;;;;5079306;28;20428;-63
2024/01/14 05:10:09;;;;;;;17.67;4.40;;;3.00;99.90;;;;;;5072207;28;20506;-63
2024/01/14 05:12:35;;;;;;;16.25;4.38;;;3.00;99.90;;;;;;5072664;28;20412;-63
2024/01/14 05:15:00;;;;;;;15.57;4.45;;;3.00;99.90;;;;;;5083521;28;20478;-63
2024/01/14 05:17:26;;;;;;;20.03;4.27;;;3.00;99.90;;;;;;5074270;28;20818;-63
2024/01/14 05:19:53;;;;;;;17.52;4.68;;;3.00;99.90;;;;;;5080745;28;20426;-63
2024/01/14 05:22:19;;;;;;;18.08;3.95;;;3.00;99.90;;;;;;5080301;28;20395;-63
2024/01/14 05:24:45;;;;;;;19.00;4.57;;;3.00;99.90;;;;;;5079858;28;20585;-63
2024/01/14 05:27:14;;;;;;;18.98;4.22;;;3.00;99.90;;;;;;5055644;28;20473;-63
2024/01/14 05:29:41;;;;;;;15.50;4.17;;;2.90;99.90;;;;;;5077545;28;20432;-64
2024/01/14 05:32:08;;;;;;;16.92;4.05;;;2.90;99.90;;;;;;5078081;28;20503;-63
2024/01/14 05:34:34;;;;;;;17.17;3.93;;;2.80;99.90;;;;;;5079813;28;20413;-64
2024/01/14 05:37:01;;;;;;;16.33;3.90;;;2.80;99.90;;;;;;5079995;28;20401;-64
2024/01/14 05:39:27;;;;;;;17.92;4.40;;;2.80;99.90;;;;;;5064168;28;20478;-64
2024/01/14 05:41:53;;;;;;;17.80;4.33;;;2.70;99.90;;;;;;5084489;28;20446;-63
2024/01/14 05:44:18;;;;;;;15.50;4.17;;;2.70;99.90;;;;;;5048744;28;20400;-64
2024/01/14 05:46:44;;;;;;;20.50;4.43;;;2.70;99.90;;;;;;5075761;28;20395;-63
2024/01/14 05:49:10;;;;;;;16.05;4.10;;;2.60;99.90;;;;;;5068098;28;20390;-63
2024/01/14 05:51:36;;;;;;;19.13;4.30;;;2.60;99.90;;;;;;5067142;28;20498;-63
2024/01/14 05:54:03;;;;;;;13.73;4.07;;;2.60;99.90;;;;;;5074427;28;20681;-63
2024/01/14 05:56:29;;;;;;;14.47;3.80;;;2.50;99.90;;;;;;5077354;28;20395;-63
2024/01/14 05:58:55;;;;;;;15.13;3.80;;;2.50;99.90;;;;;;5075390;28;20390;-64
2024/01/14 06:01:21;;;;;;;17.25;4.30;;;2.50;99.90;;;;;;5083421;28;20424;-63
2024/01/14 06:03:47;;;;;;;15.82;3.90;;;2.50;99.90;;;;;;5083676;28;20412;-63
2024/01/14 06:06:13;;;;;;;14.10;3.70;;;2.50;99.90;;;;;;5084971;28;20401;-63
2024/01/14 06:08:40;;;;;;;13.10;3.70;;;2.50;99.90;;;;;;5078040;28;20441;-63
2024/01/14 06:11:06;;;;;;;11.75;3.72;;;2.50;99.90;;;;;;5080101;28;20426;-63
2024/01/14 06:13:31;;;;;;;15.43;3.53;;;2.50;99.90;;;;;;5075893;28;20756;-63
2024/01/14 06:15:58;;;;;;;12.30;3.73;;;2.50;99.90;;;;;;5086011;28;20592;-64
2024/01/14 06:18:24;;;;;;;9.60;3.40;;;2.50;99.90;;;;;;5078059;28;20387;-64
2024/01/14 06:20:49;;;;;;;16.75;3.88;;;2.50;99.90;;;;;;5080766;28;20911;-63
2024/01/14 06:23:16;;;;;;;16.73;3.50;;;2.60;99.90;;;;;;5081114;28;20408;-63
2024/01/14 06:25:41;;;;;;;13.48;3.40;;;2.60;99.90;;;;;;5082149;28;20402;-64
2024/01/14 06:28:07;;;;;;;12.60;3.25;;;2.60;99.90;;;;;;5082418;28;20388;-63
2024/01/14 06:30:34;;;;;;;13.13;3.50;;;2.60;99.90;;;;;;5083074;28;20413;-63
2024/01/14 06:33:00;;;;;;;15.93;3.88;;;2.60;99.90;;;;;;5082036;28;20428;-64
2024/01/14 06:35:25;;;;;;;12.07;3.58;;;2.60;99.90;;;;;;5076471;28;20822;-64
2024/01/14 06:37:51;;;;;;;16.10;3.63;;;2.60;99.90;;;;;;5085410;28;21362;-63
2024/01/14 06:40:17;;;;;;;9.07;3.53;;;2.60;99.90;;;;;;5078719;28;20428;-63
2024/01/14 06:42:43;;;;;;;12.03;3.60;;;2.60;99.90;;;;;;5076378;28;20755;-63
2024/01/14 06:45:12;;;;;;;14.23;3.78;;;2.50;99.90;;;;;;5076674;28;20411;-64
2024/01/14 06:47:38;;;;;;;13.57;3.55;;;2.60;99.90;;;;;;5083127;28;20410;-64
2024/01/14 06:50:05;;;;;;;10.63;3.47;;;2.60;99.90;;;;;;5079482;28;20923;-63
2024/01/14 06:52:30;;;;;;;12.30;3.50;;;2.60;99.90;;;;;;5080689;28;20604;-64
2024/01/14 06:54:56;;;;;;;11.18;3.47;;;2.70;99.90;;;;;;5071169;28;20479;-63
2024/01/14 06:57:22;;;;;;;14.35;3.60;;;2.80;99.90;;;;;;5065789;28;20521;-64
2024/01/14 06:59:48;;;;;;;15.07;3.90;;;2.80;99.90;;;;;;5058320;28;20428;-63
2024/01/14 07:02:14;;;;;;;13.93;3.75;;;2.90;99.90;;;;;;5082725;28;20405;-64
2024/01/14 07:04:40;;;;;;;14.35;3.80;;;2.90;99.90;;;;;;5085950;28;20433;-63
2024/01/14 07:07:08;;;;;;;16.00;4.20;;;2.90;99.90;;;;;;5083769;28;20543;-64
2024/01/14 07:09:34;;;;;;;15.48;3.80;;;2.90;99.90;;;;;;5073620;28;20411;-64
2024/01/14 07:12:03;;;;;;;14.27;4.10;;;3.00;99.90;;;;;;5081242;28;20394;-64
2024/01/14 07:14:29;;;;;;;15.55;4.32;;;3.00;99.90;;;;;;5073810;28;20739;-64
2024/01/14 07:16:55;;;;;;;13.20;3.90;;;3.00;99.90;;;;;;5072902;28;20419;-64
2024/01/14 07:19:20;;;;;;;17.03;4.60;;;3.00;99.90;;;;;;5081048;28;20498;-64
2024/01/14 07:21:46;;;;;;;15.05;3.88;;;3.00;99.90;;;;;;5078260;28;20460;-64
2024/01/14 07:24:12;;;;;;;13.27;4.03;;;3.00;99.90;;;;;;5074611;28;20425;-64
2024/01/14 07:26:38;;;;;;;11.70;3.78;;;3.00;99.90;;;;;;5079882;28;20398;-64
2024/01/14 07:29:04;;;;;;;15.75;4.10;;;3.00;99.90;;;;;;5068419;28;20422;-64
2024/01/14 07:31:30;;;;;;;14.43;3.87;;;2.90;99.90;;;;;;5067718;28;20432;-64
2024/01/14 07:33:57;;;;;;;11.82;3.65;;;2.90;99.90;;;;;;5074981;28;20418;-64
2024/01/14 07:36:23;;;;;;;12.73;4.03;;;3.00;99.90;;;;;;5076751;28;20474;-64
2024/01/14 07:38:51;;;;;;;14.77;4.10;;;3.00;99.90;;;;;;5076689;28;20388;-63
2024/01/14 07:41:17;;;;;;;14.02;3.88;;;3.00;99.90;;;;;;5059273;28;20430;-64
2024/01/14 07:43:43;;;;;;;11.80;4.10;;;3.00;99.90;;;;;;5080981;28;20399;-64
2024/01/14 07:46:09;;;;;;;13.63;3.75;;;3.00;99.90;;;;;;5046760;28;20922;-63
2024/01/14 07:48:35;;;;;;;16.90;3.85;;;3.00;99.90;;;;;;5081092;28;20404;-64
2024/01/14 07:51:02;;;;;;;14.35;3.95;;;3.00;99.90;;;;;;5073199;28;20461;-64
2024/01/14 07:53:27;;;;;;;14.13;3.65;;;3.00;99.90;;;;;;5085053;28;20792;-64
2024/01/14 07:55:53;;;;;;;13.90;3.63;;;3.10;99.90;;;;;;5076336;28;20465;-64
2024/01/14 07:58:19;;;;;;;10.53;3.57;;;3.10;99.90;;;;;;5060779;28;20400;-63
2024/01/14 08:00:45;;;;;;;13.67;3.60;;;3.10;99.90;;;;;;5060017;28;20518;-64
2024/01/14 08:03:11;;;;;;;12.15;3.90;;;3.10;99.90;;;;;;5076500;28;20478;-64
2024/01/14 08:05:40;;;;;;;9.80;3.60;;;3.10;99.90;;;;;;5072312;28;20630;-64
2024/01/14 08:08:06;;;;;;;12.93;4.50;;;3.10;99.90;;;;;;5077046;28;20408;-64
2024/01/14 08:10:33;;;;;;;16.53;3.53;;;3.10;99.90;;;;;;5071829;28;20437;-64
2024/01/14 08:12:59;;;;;;;14.40;4.15;;;3.10;99.90;;;;;;5082491;28;20408;-63
2024/01/14 08:15:25;;;;;;;13.52;4.00;;;3.20;99.90;;;;;;5075858;28;20404;-63
2024/01/14 08:17:51;;;;;;;13.93;3.92;;;3.20;99.90;;;;;;5067208;28;20414;-63
2024/01/14 08:20:17;;;;;;;11.70;3.78;;;3.20;99.90;;;;;;5073823;28;20424;-63
2024/01/14 08:22:42;;;;;;;12.10;3.88;;;3.20;99.90;;;;;;5073231;28;20414;-63
2024/01/14 08:25:10;;;;;;;14.07;4.03;;;3.20;99.90;;;;;;5074375;28;20744;-64
2024/01/14 08:27:38;;;;;;;10.82;3.22;;;3.20;99.90;;;;;;5079185;28;20405;-63
2024/01/14 08:30:06;;;;;;;12.63;3.53;;;3.30;99.90;;;;;;5075955;28;20400;-63
2024/01/14 08:32:32;;;;;;;15.07;3.45;;;3.30;99.90;;;;;;5049010;28;20431;-64
2024/01/14 08:34:58;;;;;;;9.50;3.60;;;3.30;99.90;;;;;;5041953;28;20416;-63
2024/01/14 08:37:24;;;;;;;10.00;3.22;;;3.40;99.90;;;;;;5075321;28;20407;-63
2024/01/14 08:39:50;;;;;;;9.68;3.40;;;3.40;99.90;;;;;;5079998;28;20425;-63
2024/01/14 08:42:19;;;;;;;9.65;3.33;;;3.50;99.90;;;;;;5050431;28;20400;-64
2024/01/14 08:44:45;;;;;;;10.82;3.33;;;3.40;99.90;;;;;;5072782;28;20429;-64
2024/01/14 08:47:11;;;;;;;9.43;3.67;;;3.40;99.90;;;;;;5067024;28;20415;-63
2024/01/14 08:49:39;;;;;;;12.27;4.03;;;3.50;99.90;;;;;;5067374;28;20391;-64
2024/01/14 08:52:07;;;;;;;10.37;4.10;;;3.60;99.90;;;;;;5067462;28;20764;-63
2024/01/14 08:54:34;;;;;;;8.77;3.58;;;3.60;99.90;;;;;;5067710;28;20432;-64
2024/01/14 08:56:59;;;;;;;11.52;3.88;;;3.60;99.90;;;;;;5065711;28;20408;-64
2024/01/14 08:59:25;;;;;;;10.20;3.95;;;3.60;99.90;;;;;;5075238;28;20749;-63
2024/01/14 09:01:51;;;;;;;8.98;4.15;;;3.70;99.90;;;;;;5070376;28;20765;-64
2024/01/14 09:04:17;;;;;;;12.95;4.57;;;3.60;99.90;;;;;;5072270;28;20455;-64
2024/01/14 09:06:43;;;;;;;12.68;4.60;;;3.70;99.90;;;;;;5066886;28;20411;-64
2024/01/14 09:09:09;;;;;;;11.32;5.40;;;3.70;99.90;;;;;;5063519;28;20412;-64
2024/01/14 09:11:35;;;;;;;12.90;5.20;;;3.60;99.90;;;;;;5069997;28;20884;-64
2024/01/14 09:14:01;;;;;;;12.73;5.15;;;3.60;99.90;;;;;;5073560;28;20411;-64
2024/01/14 09:16:26;;;;;;;13.70;6.37;;;3.50;99.90;;;;;;5071739;28;20431;-64
2024/01/14 09:18:52;;;;;;;12.63;5.68;;;3.60;99.90;;;;;;5072584;28;20467;-64
2024/01/14 09:21:18;;;;;;;11.82;5.60;;;3.70;99.90;;;;;;5073306;28;20434;-64
2024/01/14 09:23:44;;;;;;;14.25;7.07;;;3.70;99.90;;;;;;5072727;28;20474;-64
2024/01/14 09:26:09;;;;;;;14.20;7.73;;;3.60;99.90;;;;;;5036452;28;20453;-64
2024/01/14 09:28:36;;;;;;;11.80;5.50;;;3.70;99.90;;;;;;5054475;28;20403;-64
2024/01/14 09:31:02;;;;;;;12.02;6.10;;;3.60;99.90;;;;;;5071646;28;20411;-64
2024/01/14 09:33:28;;;;;;;13.93;6.25;;;3.70;99.90;;;;;;5072320;28;20478;-64
2024/01/14 09:35:57;;;;;;;15.27;6.25;;;3.70;99.90;;;;;;5070173;28;20983;-64
2024/01/14 09:38:23;;;;;;;12.43;6.57;;;3.70;99.90;;;;;;5063370;28;20412;-63
2024/01/14 09:41:28;;;;;;;16.23;5.55;;;3.70;99.90;;;;;;5072224;28;20616;-64
2024/01/14 09:43:54;;;;;;;14.25;5.22;;;3.80;99.90;;;;;;5071036;28;20479;-64
2024/01/14 09:46:20;;;;;;;12.82;5.22;;;3.80;99.90;;;;;;5072299;28;20506;-63
2024/01/14 09:48:48;;;;;;;12.45;5.05;;;3.80;99.90;;;;;;5054529;28;20403;-64
2024/01/14 09:51:16;;;;;;;12.95;5.00;;;3.80;99.90;;;;;;5070905;28;20407;-64
2024/01/14 09:53:43;;;;;;;15.88;5.20;;;3.90;99.90;;;;;;5058368;28;20481;-64
2024/01/14 09:56:10;;;;;;;11.55;4.65;;;4.00;99.90;;;;;;5072120;28;20434;-64
2024/01/14 09:58:39;;;;;;;10.23;4.65;;;4.00;99.90;;;;;;5071904;28;20884;-64
2024/01/14 10:01:08;;;;;;;8.45;4.07;;;4.00;99.90;;;;;;5072108;28;20419;-64
2024/01/14 10:03:34;;;;;;;13.45;4.53;;;4.00;99.90;;;;;;5070570;28;20407;-64
2024/01/14 10:06:01;;;;;;;9.02;4.20;;;4.10;99.90;;;;;;5071655;28;20893;-64
2024/01/14 10:08:27;;;;;;;7.22;3.40;;;4.00;99.90;;;;;;5070770;28;20461;-64
2024/01/14 10:10:53;;;;;;;7.80;3.22;;;4.00;99.90;;;;;;5071029;28;20410;-64
2024/01/14 10:13:22;;;;;;;8.18;2.97;;;4.10;99.90;;;;;;5053324;28;20408;-64
2024/01/14 10:15:48;;;;;;;6.80;3.03;;;4.00;99.90;;;;;;5069954;28;20444;-64
2024/01/14 10:18:15;;;;;;;7.97;3.50;;;4.00;99.90;;;;;;5042529;28;20454;-64
2024/01/14 10:20:40;;;;;;;9.00;3.75;;;4.10;99.90;;;;;;5068122;28;20428;-64
2024/01/14 10:23:06;;;;;;;7.57;3.83;;;4.20;99.90;;;;;;5076901;28;20417;-64
2024/01/14 10:25:32;;;;;;;9.10;5.10;;;4.20;99.90;;;;;;5061780;28;20420;-64
2024/01/14 10:28:04;;;;;;;10.48;5.20;;;4.20;99.90;;;;;;5079568;28;20396;-64
2024/01/14 10:30:30;;;;;;;10.20;5.90;;;4.20;99.90;;;;;;5082411;28;20408;-64
2024/01/14 10:32:56;;;;;;;11.23;7.10;;;4.20;99.90;;;;;;5079677;28;20423;-64
2024/01/14 10:35:24;;;;;;;12.20;7.20;;;4.10;99.90;;;;;;5066644;28;20456;-64
2024/01/14 10:37:50;;;;;;;12.20;7.68;;;4.20;99.90;;;;;;5077520;28;20469;-64
2024/01/14 10:40:19;;;;;;;11.27;8.00;;;4.20;99.90;;;;;;5074615;28;20431;-64
2024/01/14 10:42:45;;;;;;;15.57;10.20;;;4.00;99.90;;;;;;5075720;28;20431;-64
2024/01/14 10:45:11;;;;;;;14.25;9.18;;;4.10;99.90;;;;;;5071025;28;20399;-64
2024/01/14 10:47:39;;;;;;;13.75;9.25;;;4.10;99.90;;;;;;5071711;28;20487;-64
2024/01/14 10:50:08;;;;;;;17.73;11.23;;;4.00;99.90;;;;;;5071118;28;20463;-64
2024/01/14 10:52:39;;;;;;;16.88;11.60;;;4.00;99.90;;;;;;5070244;28;20903;-64
2024/01/14 10:55:27;;;;;;;19.10;13.10;;;4.00;99.90;;;;;;5071031;28;20428;-64
2024/01/14 10:57:55;;;;;;;24.33;13.67;;;4.00;99.90;;;;;;5070748;28;20431;-64
2024/01/14 11:00:21;;;;;;;19.00;13.43;;;4.00;99.90;;;;;;5068201;28;20784;-64
2024/01/14 11:02:47;;;;;;;19.53;13.10;;;4.00;99.90;;;;;;5051716;28;20407;-64
2024/01/14 11:05:13;;;;;;;16.80;11.97;;;4.10;99.90;;;;;;5069999;28;20391;-64
2024/01/14 11:07:39;;;;;;;15.35;11.70;;;4.00;99.90;;;;;;5052972;28;20403;-64
2024/01/14 11:10:10;;;;;;;16.98;12.55;;;4.00;99.90;;;;;;5068470;28;20415;-64
2024/01/14 11:13:13;;;;;;;21.10;15.05;;;4.10;99.90;;;;;;5052950;28;20403;-64
2024/01/14 11:16:03;;;;;;;24.63;17.27;;;4.00;99.90;;;;;;5070698;28;20403;-64
2024/01/14 11:18:38;;;;;;;26.40;17.80;;;4.00;99.90;;;;;;5051231;28;20434;-63
2024/01/14 11:21:33;;;;;;;30.17;19.83;;;4.00;99.90;;;;;;5065535;28;20430;-63
2024/01/14 11:23:59;;;;;;;32.33;20.13;;;4.00;99.90;;;;;;5025275;28;20403;-63
2024/01/14 11:26:26;;;;;;;30.08;21.08;;;4.00;99.90;;;;;;5059637;28;20403;-63
2024/01/14 11:28:54;;;;;;;29.23;20.02;;;4.00;99.90;;;;;;5069978;28;20974;-63
2024/01/14 11:31:20;;;;;;;32.90;20.67;;;4.10;99.90;;;;;;5070563;28;20740;-63
2024/01/14 11:33:46;;;;;;;29.33;20.08;;;4.10;99.90;;;;;;5069551;28;20454;-63
2024/01/14 11:36:13;;;;;;;29.08;20.70;;;4.00;99.90;;;;;;5068012;28;20904;-63
2024/01/14 11:38:45;;;;;;;31.95;21.85;;;4.00;99.90;;;;;;5050941;28;20777;-63
2024/01/14 11:41:29;;;;;;;28.92;20.48;;;4.10;99.90;;;;;;5068734;28;20420;-63
2024/01/14 11:44:03;;;;;;;31.45;20.10;;;4.10;99.90;;;;;;5064525;28;20427;-64
2024/01/14 11:46:39;;;;;;;34.20;24.50;;;4.10;99.90;;;;;;5070136;28;20395;-63
2024/01/14 11:49:10;;;;;;;27.70;19.23;;;4.10;99.90;;;;;;5068918;28;20523;-63
2024/01/14 11:51:43;;;;;;;24.90;17.67;;;4.20;99.90;;;;;;5068386;28;20408;-63
2024/01/14 11:54:10;;;;;;;25.60;17.08;;;4.20;99.90;;;;;;5099570;28;20462;-63
2024/01/14 11:56:36;;;;;;;24.15;15.88;;;4.10;99.90;;;;;;5069724;28;20474;-63
2024/01/14 11:59:13;;;;;;;21.52;15.65;;;4.20;99.90;;;;;;5068734;28;20418;-63
2024/01/14 12:01:39;;;;;;;21.80;15.88;;;4.30;99.90;;;;;;5067761;28;20422;-63
2024/01/14 12:04:10;;;;;;;19.55;14.10;;;4.40;99.90;;;;;;5067876;28;20829;-63
2024/01/14 12:06:46;;;;;;;20.33;12.98;;;4.30;99.90;;;;;;5067190;28;20411;-63
2024/01/14 12:09:17;;;;;;;16.00;11.85;;;4.40;99.90;;;;;;5068229;28;20896;-63
2024/01/14 12:11:43;;;;;;;19.58;12.80;;;4.40;99.90;;;;;;5051818;28;20413;-63
2024/01/14 12:14:10;;;;;;;17.25;12.02;;;4.50;99.90;;;;;;5052149;28;20396;-63
2024/01/14 12:16:38;;;;;;;26.63;19.60;;;4.50;99.90;;;;;;5051579;28;20410;-63
2024/01/14 12:19:16;;;;;;;19.77;14.65;;;4.40;99.90;;;;;;5055416;28;20752;-63
2024/01/14 12:21:42;;;;;;;21.10;16.63;;;4.30;99.90;;;;;;5061278;28;20496;-63
2024/01/14 12:24:08;;;;;;;22.65;16.35;;;4.30;99.90;;;;;;5067259;28;20415;-63
2024/01/14 12:26:34;;;;;;;19.38;14.77;;;4.30;99.90;;;;;;5068020;28;20456;-63
2024/01/14 12:29:00;;;;;;;20.70;15.90;;;4.30;99.90;;;;;;5064806;28;20452;-63
2024/01/14 12:31:26;;;;;;;19.05;14.38;;;4.30;99.90;;;;;;5062999;28;21133;-63
2024/01/14 12:33:52;;;;;;;21.95;15.68;;;4.30;99.90;;;;;;5061606;28;20923;-63
2024/01/14 12:36:21;;;;;;;20.95;14.75;;;4.30;99.90;;;;;;5068935;28;20399;-63
2024/01/14 12:38:47;;;;;;;21.30;16.33;;;4.30;99.90;;;;;;5069315;28;20776;-63
2024/01/14 12:41:13;;;;;;;19.52;14.52;;;4.20;99.90;;;;;;5067791;28;20426;-63
2024/01/14 12:43:41;;;;;;;21.10;14.57;;;4.20;99.90;;;;;;5067500;28;20459;-63